Time;durP1;ratioP1;P1;durP2;ratioP2;P2;SDS_P1;SDS_P2;PMS_P1;PMS_P2;Temp;Humidity;BMP_temperature;BMP_pressure;BME280_temperature;BME280_humidity;BME280_pressure;Samples;Min_cycle;Max_cycle;Signal;HPM_P1;HPM_P2
2023/01/14 00:02:00;;;;;;;78.32;41.25;;;;;;;5.69;100.00;100787.44;5111921;28;20110;-68
2023/01/14 00:04:25;;;;;;;70.18;39.58;;;;;;;5.69;100.00;100791.88;5110659;28;20462;-68
2023/01/14 00:06:51;;;;;;;78.20;40.28;;;;;;;5.89;100.00;100871.41;5111915;28;20055;-69
2023/01/14 00:09:16;;;;;;;67.55;39.55;;;;;;;5.93;100.00;100857.84;5111463;28;20100;-68
2023/01/14 00:11:51;;;;;;;68.45;40.58;;;;;;;5.86;100.00;100868.94;5111428;28;20027;-68
2023/01/14 00:14:21;;;;;;;76.05;41.78;;;;;;;5.86;100.00;100847.66;5108324;28;20024;-68
2023/01/14 00:16:48;;;;;;;71.55;40.33;;;;;;;5.70;100.00;100855.66;5109246;28;20084;-68
2023/01/14 00:19:14;;;;;;;76.47;42.78;;;;;;;5.66;100.00;100855.94;5111548;28;20587;-68
2023/01/14 00:21:41;;;;;;;70.95;41.47;;;;;;;5.63;100.00;100840.16;5111063;28;20020;-68
2023/01/14 00:24:08;;;;;;;70.50;40.00;;;;;;;5.59;100.00;100834.16;5111446;28;20510;-68
2023/01/14 00:26:33;;;;;;;68.95;41.55;;;;;;;5.60;100.00;100846.50;5111137;28;20024;-68
2023/01/14 00:28:59;;;;;;;73.45;41.05;;;;;;;5.58;100.00;100845.75;5111067;28;20131;-68
2023/01/14 00:31:27;;;;;;;70.68;40.08;;;;;;;5.57;100.00;100838.72;5110977;28;20043;-68
2023/01/14 00:33:54;;;;;;;73.95;40.65;;;;;;;5.61;100.00;100855.38;5110904;28;20076;-68
2023/01/14 00:36:22;;;;;;;67.97;40.65;;;;;;;5.64;100.00;100855.19;5107780;28;20486;-69
2023/01/14 00:38:48;;;;;;;73.20;41.05;;;;;;;5.56;100.00;100838.81;5110135;28;20040;-69
2023/01/14 00:41:20;;;;;;;72.88;42.25;;;;;;;5.59;100.00;100831.50;5109966;28;20024;-69
2023/01/14 00:43:48;;;;;;;73.22;40.72;;;;;;;5.65;100.00;100839.13;5110845;28;20409;-69
2023/01/14 00:46:23;;;;;;;75.93;42.55;;;;;;;5.68;100.00;100838.09;5111079;28;20455;-69
2023/01/14 00:48:48;;;;;;;76.30;44.65;;;;;;;5.68;100.00;100836.25;5109576;28;20052;-69
2023/01/14 00:51:15;;;;;;;73.40;42.38;;;;;;;5.69;100.00;100832.66;5110877;28;20092;-69
2023/01/14 00:53:42;;;;;;;73.80;43.00;;;;;;;5.69;100.00;100823.81;5111185;28;20091;-68
2023/01/14 00:56:08;;;;;;;70.80;40.08;;;;;;;5.72;100.00;100820.97;5110252;28;20076;-69
2023/01/14 00:58:34;;;;;;;75.68;44.05;;;;;;;5.60;100.00;100801.28;5111223;28;20114;-69
2023/01/14 01:01:00;;;;;;;70.88;42.85;;;;;;;5.61;100.00;100797.66;5110697;28;20133;-69
2023/01/14 01:03:26;;;;;;;74.57;43.70;;;;;;;5.73;100.00;100826.22;5110521;28;20035;-69
2023/01/14 01:05:52;;;;;;;75.15;42.42;;;;;;;5.74;100.00;100849.19;5110648;28;20066;-69
2023/01/14 01:08:19;;;;;;;72.00;44.30;;;;;;;5.76;100.00;100862.41;5110260;28;20035;-69
2023/01/14 01:10:47;;;;;;;75.20;44.17;;;;;;;5.76;100.00;100865.94;5110804;28;20052;-69
2023/01/14 01:13:12;;;;;;;76.88;43.58;;;;;;;5.75;100.00;100861.59;5110276;28;20031;-68
2023/01/14 01:15:39;;;;;;;76.60;45.88;;;;;;;5.73;100.00;100851.94;5108767;28;20031;-69
2023/01/14 01:18:06;;;;;;;76.95;44.28;;;;;;;5.71;100.00;100844.06;5110554;27;20118;-69
2023/01/14 01:20:32;;;;;;;79.60;45.88;;;;;;;5.71;100.00;100833.41;5110530;28;20016;-69
2023/01/14 01:22:57;;;;;;;84.93;47.85;;;;;;;5.69;100.00;100835.34;5109128;28;20546;-68
2023/01/14 01:25:23;;;;;;;77.85;46.78;;;;;;;5.69;100.00;100842.44;5110244;28;20395;-68
2023/01/14 01:27:49;;;;;;;83.25;47.30;;;;;;;5.61;100.00;100829.59;5108207;28;20112;-68
2023/01/14 01:30:14;;;;;;;84.85;48.05;;;;;;;5.68;100.00;100846.91;5109318;28;20039;-68
2023/01/14 01:32:40;;;;;;;81.97;47.72;;;;;;;5.66;100.00;100837.31;5110329;28;20486;-69
2023/01/14 01:35:06;;;;;;;82.88;46.60;;;;;;;5.63;100.00;100834.81;5110637;28;20106;-68
2023/01/14 01:37:32;;;;;;;86.93;49.05;;;;;;;5.64;100.00;100832.06;5110648;27;20023;-68
2023/01/14 01:39:57;;;;;;;81.32;48.40;;;;;;;5.59;100.00;100820.88;5109043;28;20103;-68
2023/01/14 01:42:24;;;;;;;82.40;46.88;;;;;;;5.64;100.00;100826.75;5110167;28;20455;-69
2023/01/14 01:44:49;;;;;;;82.47;48.60;;;;;;;5.66;100.00;100830.19;5110275;28;20047;-69
2023/01/14 01:47:17;;;;;;;90.22;49.35;;;;;;;5.65;100.00;100823.16;5108884;28;20071;-69
2023/01/14 01:49:42;;;;;;;89.15;50.42;;;;;;;5.64;100.00;100824.09;5110225;28;20052;-69
2023/01/14 01:52:10;;;;;;;88.90;50.97;;;;;;;5.69;100.00;100832.66;5110108;27;20081;-69
2023/01/14 01:54:41;;;;;;;84.88;49.70;;;;;;;5.59;100.00;100812.88;5111555;27;20036;-69
2023/01/14 01:57:09;;;;;;;90.15;49.97;;;;;;;5.63;100.00;100822.38;5109642;27;20039;-68
2023/01/14 01:59:39;;;;;;;85.70;48.42;;;;;;;5.63;100.00;100817.06;5109676;28;20133;-68
2023/01/14 02:02:05;;;;;;;79.88;47.72;;;;;;;5.69;100.00;100805.19;5109543;28;20580;-68
2023/01/14 02:04:31;;;;;;;87.85;48.83;;;;;;;5.80;100.00;100803.59;5109716;28;20043;-68
2023/01/14 02:06:57;;;;;;;81.47;46.40;;;;;;;5.80;100.00;100808.91;5108074;28;20078;-68
2023/01/14 02:09:22;;;;;;;80.47;45.53;;;;;;;5.80;100.00;100819.56;5109219;28;20027;-68
2023/01/14 02:12:03;;;;;;;84.20;46.60;;;;;;;5.78;100.00;100805.50;5109607;28;20070;-68
2023/01/14 02:14:53;;;;;;;80.20;45.22;;;;;;;5.81;100.00;100804.47;5106952;28;20065;-69
2023/01/14 02:17:37;;;;;;;82.00;47.72;;;;;;;5.80;100.00;100806.25;5107896;28;20046;-68
2023/01/14 02:20:08;;;;;;;80.47;45.85;;;;;;;5.80;100.00;100806.25;5107684;28;20024;-68
2023/01/14 02:22:49;;;;;;;85.60;47.78;;;;;;;5.83;100.00;100811.44;5109271;28;20019;-68
2023/01/14 02:25:31;;;;;;;86.15;47.38;;;;;;;5.83;100.00;100810.56;5109536;28;20111;-68
2023/01/14 02:28:21;;;;;;;86.30;48.90;;;;;;;5.80;100.00;100816.06;5109030;28;20471;-68
2023/01/14 02:31:03;;;;;;;88.15;48.65;;;;;;;5.77;100.00;100798.47;5108117;28;20031;-68
2023/01/14 02:33:29;;;;;;;85.85;48.78;;;;;;;5.76;100.00;100812.72;5105892;28;20027;-68
2023/01/14 02:35:57;;;;;;;82.63;47.30;;;;;;;5.80;100.00;100816.91;5109371;28;20092;-69
2023/01/14 02:38:39;;;;;;;80.15;46.45;;;;;;;5.80;100.00;100814.25;5108024;28;20407;-68
2023/01/14 02:41:21;;;;;;;86.65;46.78;;;;;;;5.75;100.00;100811.03;5109600;28;20039;-69
2023/01/14 02:44:08;;;;;;;85.32;48.97;;;;;;;5.75;100.00;100805.69;5109204;28;20031;-68
2023/01/14 02:46:35;;;;;;;84.82;46.40;;;;;;;5.70;100.00;100806.91;5108175;28;20042;-69
2023/01/14 02:49:03;;;;;;;84.15;46.65;;;;;;;5.75;100.00;100810.16;5108767;28;20052;-69
2023/01/14 02:51:29;;;;;;;88.18;48.42;;;;;;;5.72;100.00;100805.00;5108614;28;20400;-68
2023/01/14 02:53:54;;;;;;;84.20;46.50;;;;;;;5.66;100.00;100797.41;5107830;28;20043;-68
2023/01/14 02:56:20;;;;;;;81.07;47.58;;;;;;;5.68;100.00;100807.00;5108577;28;20020;-69
2023/01/14 02:58:57;;;;;;;84.45;47.70;;;;;;;5.73;100.00;100820.03;5107444;28;20485;-69
2023/01/14 03:02:04;;;;;;;83.35;46.08;;;;;;;5.74;100.00;100819.09;5108429;28;20460;-68
2023/01/14 03:04:44;;;;;;;79.75;47.75;;;;;;;5.63;100.00;100805.56;5068117;28;20047;-68
2023/01/14 03:07:37;;;;;;;83.20;47.05;;;;;;;5.70;100.00;100817.53;5108374;28;20708;-68
2023/01/14 03:10:15;;;;;;;83.00;48.53;;;;;;;5.68;100.00;100819.47;5107653;28;20038;-68
2023/01/14 03:12:55;;;;;;;86.15;48.67;;;;;;;5.65;100.00;100817.84;5105945;28;20035;-68
2023/01/14 03:15:36;;;;;;;93.32;49.67;;;;;;;5.63;100.00;100814.41;5107286;28;20110;-68
2023/01/14 03:18:09;;;;;;;85.82;46.92;;;;;;;5.62;100.00;100818.03;5135416;27;20085;-69
2023/01/14 03:20:40;;;;;;;87.72;48.63;;;;;;;5.62;100.00;100818.03;5108168;28;20395;-68
2023/01/14 03:23:09;;;;;;;86.78;48.85;;;;;;;5.60;100.00;100821.69;5106987;28;20032;-68
2023/01/14 03:25:39;;;;;;;89.90;49.72;;;;;;;5.58;100.00;100815.63;5108666;28;20035;-68
2023/01/14 03:28:08;;;;;;;90.93;51.25;;;;;;;5.64;100.00;100824.09;5108867;28;20509;-68
2023/01/14 03:30:39;;;;;;;93.25;51.22;;;;;;;5.64;100.00;100829.41;5108772;28;20028;-68
2023/01/14 03:33:10;;;;;;;84.55;47.30;;;;;;;5.59;100.00;100820.00;5108611;28;20035;-68
2023/01/14 03:35:41;;;;;;;92.93;50.35;;;;;;;5.61;100.00;100818.94;5108725;28;20411;-68
2023/01/14 03:38:15;;;;;;;88.65;50.78;;;;;;;5.58;100.00;100826.28;5108718;28;20055;-69
2023/01/14 03:40:41;;;;;;;98.57;51.70;;;;;;;5.59;100.00;100817.34;5108801;28;20047;-68
2023/01/14 03:43:16;;;;;;;90.47;50.53;;;;;;;5.71;100.00;100829.91;5107682;28;20076;-68
2023/01/14 03:45:42;;;;;;;87.50;49.38;;;;;;;5.70;100.00;100822.88;5108696;28;20047;-68
2023/01/14 03:48:09;;;;;;;87.10;51.05;;;;;;;5.64;100.00;100834.72;5109127;28;20035;-68
2023/01/14 03:51:03;;;;;;;83.80;47.97;;;;;;;5.64;100.00;100831.25;5108584;28;20052;-68
2023/01/14 03:53:35;;;;;;;89.13;48.47;;;;;;;5.61;100.00;100826.09;5071588;28;20035;-68
2023/01/14 03:56:22;;;;;;;85.88;50.47;;;;;;;5.58;100.00;100834.25;5108517;28;20036;-68
2023/01/14 03:58:50;;;;;;;82.25;47.03;;;;;;;5.55;100.00;100831.78;5108838;28;20015;-68
2023/01/14 04:01:24;;;;;;;93.55;49.60;;;;;;;5.53;100.00;100841.63;5108656;28;20434;-68
2023/01/14 04:03:50;;;;;;;81.30;47.03;;;;;;;5.48;100.00;100836.59;5107407;28;20103;-68
2023/01/14 04:06:15;;;;;;;86.60;48.83;;;;;;;5.42;100.00;100831.63;5110659;28;20036;-68
2023/01/14 04:08:41;;;;;;;97.22;51.53;;;;;;;5.47;100.00;100845.53;5112191;28;20034;-68
2023/01/14 04:11:08;;;;;;;93.75;48.70;;;;;;;5.47;100.00;100849.97;5112257;28;20120;-68
2023/01/14 04:16:17;;;;;;;93.38;50.08;;;;;;;5.41;100.00;100855.66;5112217;28;20115;-68
2023/01/14 04:18:42;;;;;;;96.15;52.47;;;;;;;5.46;100.00;100881.06;5112206;28;20040;-68
2023/01/14 04:21:08;;;;;;;95.40;52.30;;;;;;;5.45;100.00;100863.38;5110613;28;20055;-68
2023/01/14 04:23:33;;;;;;;101.68;52.63;;;;;;;5.41;100.00;100872.47;5110868;28;20027;-68
2023/01/14 04:25:59;;;;;;;95.95;52.45;;;;;;;5.42;100.00;100874.19;5112016;28;20057;-68
2023/01/14 04:28:26;;;;;;;94.43;51.92;;;;;;;5.38;100.00;100885.94;5111647;28;20043;-68
2023/01/14 04:30:52;;;;;;;96.40;52.90;;;;;;;5.40;100.00;100886.72;5113772;27;20023;-68
2023/01/14 04:33:17;;;;;;;98.13;52.17;;;;;;;5.36;100.00;100882.53;5111865;27;20026;-68
2023/01/14 04:35:50;;;;;;;93.43;52.20;;;;;;;5.39;100.00;100890.34;5113609;27;20020;-68
2023/01/14 04:38:17;;;;;;;99.63;51.22;;;;;;;5.30;100.00;100874.91;5111839;27;20630;-68
2023/01/14 04:40:43;;;;;;;102.80;52.13;;;;;;;5.34;100.00;100879.09;5112950;27;20015;-68
2023/01/14 04:43:08;;;;;;;95.35;51.28;;;;;;;5.36;100.00;100895.84;5112070;27;20107;-68
2023/01/14 04:45:35;;;;;;;108.00;55.40;;;;;;;5.34;100.00;100894.19;5113314;27;20036;-69
2023/01/14 04:48:01;;;;;;;107.05;56.13;;;;;;;5.31;100.00;100897.88;5111925;28;20038;-68
2023/01/14 04:50:34;;;;;;;110.00;57.53;;;;;;;5.30;100.00;100904.16;5113451;27;20044;-68
2023/01/14 04:53:14;;;;;;;112.10;55.05;;;;;;;5.27;100.00;100906.13;5111386;28;20028;-68
2023/01/14 04:55:41;;;;;;;96.43;52.03;;;;;;;5.21;100.00;100895.84;5112270;27;20079;-68
2023/01/14 04:58:09;;;;;;;95.85;51.47;;;;;;;5.25;100.00;100903.56;5109907;28;20483;-68
2023/01/14 05:00:35;;;;;;;105.00;54.17;;;;;;;5.32;100.00;100899.59;5113223;27;20066;-68
2023/01/14 05:03:05;;;;;;;99.97;51.47;;;;;;;5.24;100.00;100900.97;5111983;27;20031;-68
2023/01/14 05:05:31;;;;;;;96.15;52.65;;;;;;;5.22;100.00;100893.09;5141483;27;20114;-69
2023/01/14 05:07:58;;;;;;;99.60;52.80;;;;;;;5.29;100.00;100902.41;5111215;28;20032;-68
2023/01/14 05:10:23;;;;;;;98.90;52.88;;;;;;;5.37;100.00;100904.66;5108355;28;20032;-68
2023/01/14 05:12:58;;;;;;;98.82;52.10;;;;;;;5.35;100.00;100907.41;5111028;28;20019;-68
2023/01/14 05:15:29;;;;;;;97.65;50.78;;;;;;;5.39;100.00;100916.94;5109290;28;20130;-68
2023/01/14 05:17:55;;;;;;;94.65;49.42;;;;;;;5.40;100.00;100923.97;5109940;28;20498;-68
2023/01/14 05:20:23;;;;;;;91.88;49.53;;;;;;;5.27;100.00;100919.41;5109451;28;20039;-68
2023/01/14 05:22:48;;;;;;;88.82;47.70;;;;;;;5.25;100.00;100926.66;5108184;28;20031;-68
2023/01/14 05:25:14;;;;;;;95.45;47.63;;;;;;;5.14;100.00;100926.38;5109264;28;20499;-68
2023/01/14 05:27:39;;;;;;;88.82;44.97;;;;;;;5.07;100.00;100919.69;5110828;28;20035;-68
2023/01/14 05:30:05;;;;;;;107.22;45.25;;;;;;;5.08;100.00;100927.56;5110357;27;20027;-68
2023/01/14 05:32:31;;;;;;;94.63;46.10;;;;;;;4.93;100.00;100920.44;5109288;28;20042;-68
2023/01/14 05:34:56;;;;;;;85.88;46.08;;;;;;;4.91;100.00;100922.34;5109386;28;20380;-68
2023/01/14 05:37:22;;;;;;;87.32;46.33;;;;;;;4.82;100.00;100903.38;5108740;28;20426;-68
2023/01/14 05:39:47;;;;;;;96.05;48.58;;;;;;;4.86;100.00;100920.88;5110552;28;20088;-68
2023/01/14 05:47:41;;;;;;;87.05;45.38;;;;;;;4.83;100.00;100916.56;5110750;28;20092;-68
2023/01/14 05:50:13;;;;;;;94.55;44.47;;;;;;;4.81;100.00;100918.47;5108586;28;20684;-68
2023/01/14 05:52:38;;;;;;;83.50;44.55;;;;;;;4.91;100.00;100925.00;5110135;28;20023;-68
2023/01/14 05:55:04;;;;;;;79.82;41.22;;;;;;;4.94;100.00;100938.13;5108629;28;20461;-67
2023/01/14 05:57:30;;;;;;;80.05;40.45;;;;;;;4.90;100.00;100930.41;5110162;28;20028;-68
2023/01/14 05:59:56;;;;;;;76.18;40.47;;;;;;;4.85;100.00;100921.81;5110457;28;20038;-70
2023/01/14 06:07:54;;;;;;;93.47;39.40;;;;;;;4.80;100.00;100937.16;5078392;28;20149;-70
2023/01/14 06:10:24;;;;;;;72.05;40.15;;;;;;;4.96;100.00;100949.50;5107823;27;20654;-70
2023/01/14 06:13:02;;;;;;;79.13;35.58;;;;;;;4.96;100.00;100960.13;5109977;27;20034;-70
2023/01/14 06:15:33;;;;;;;76.57;39.22;;;;;;;4.85;100.00;100954.56;5109541;27;20030;-70
2023/01/14 06:18:09;;;;;;;82.40;39.25;;;;;;;4.91;100.00;100962.22;5108942;27;20031;-70
2023/01/14 06:20:37;;;;;;;73.28;39.00;;;;;;;4.88;100.00;100961.50;5108803;27;20039;-70
2023/01/14 06:23:03;;;;;;;78.97;36.08;;;;;;;4.85;100.00;100967.84;5109274;28;20045;-70
2023/01/14 06:25:30;;;;;;;71.00;37.58;;;;;;;4.77;100.00;100963.91;5108651;28;20047;-68
2023/01/14 06:27:56;;;;;;;77.40;35.60;;;;;;;4.85;100.00;100969.63;5107177;28;20479;-68
2023/01/14 06:30:22;;;;;;;70.97;38.95;;;;;;;4.82;100.00;100980.44;5108544;27;20046;-68
2023/01/14 06:32:48;;;;;;;76.90;38.22;;;;;;;4.71;100.00;100963.28;5110650;27;20031;-68
2023/01/14 06:35:14;;;;;;;77.10;37.95;;;;;;;4.59;100.00;100979.00;5106822;28;20476;-68
2023/01/14 06:37:43;;;;;;;71.65;36.33;;;;;;;4.57;100.00;100992.38;5108626;27;20035;-68
2023/01/14 06:40:09;;;;;;;85.13;37.47;;;;;;;4.73;100.00;100997.72;5107675;27;20019;-68
2023/01/14 06:42:35;;;;;;;81.38;38.42;;;;;;;4.57;100.00;100989.72;5108458;28;20114;-68
2023/01/14 06:45:00;;;;;;;100.22;45.22;;;;;;;4.58;100.00;101003.88;5110492;27;20098;-68
2023/01/14 06:47:25;;;;;;;74.97;39.42;;;;;;;4.59;100.00;100992.28;5109164;27;20023;-68
2023/01/14 06:49:51;;;;;;;81.03;40.47;;;;;;;4.48;100.00;100989.31;5108264;28;20055;-68
2023/01/14 06:52:17;;;;;;;75.40;34.88;;;;;;;4.61;100.00;101004.56;5107579;28;20427;-68
2023/01/14 06:54:42;;;;;;;83.60;36.95;;;;;;;4.63;100.00;101004.47;5108633;28;20592;-68
2023/01/14 06:57:07;;;;;;;77.18;38.05;;;;;;;4.68;100.00;101007.75;5108617;28;20032;-68
2023/01/14 06:59:33;;;;;;;71.88;36.45;;;;;;;4.68;100.00;101018.38;5108699;28;20023;-67
2023/01/14 07:01:58;;;;;;;74.03;38.15;;;;;;;4.59;100.00;101000.25;5107527;28;20015;-68
2023/01/14 07:04:24;;;;;;;66.15;34.55;;;;;;;4.44;100.00;101009.88;5112199;28;20034;-71
2023/01/14 07:06:49;;;;;;;71.55;35.17;;;;;;;4.53;100.00;101014.72;5109060;28;20092;-71
2023/01/14 07:09:15;;;;;;;70.47;32.75;;;;;;;4.69;100.00;101020.09;5108832;28;20039;-71
2023/01/14 07:11:42;;;;;;;78.07;34.83;;;;;;;4.60;100.00;101018.78;5112257;27;20027;-72
2023/01/14 07:14:07;;;;;;;70.43;33.67;;;;;;;4.68;100.00;101013.06;5103574;28;20038;-69
2023/01/14 07:16:33;;;;;;;75.30;32.95;;;;;;;4.58;100.00;101006.53;5107394;28;20031;-70
2023/01/14 07:18:58;;;;;;;65.32;31.45;;;;;;;4.42;100.00;101003.78;5107891;28;20387;-71
2023/01/14 07:21:24;;;;;;;66.03;34.22;;;;;;;4.51;100.00;101005.09;5105029;28;20034;-70
2023/01/14 07:23:50;;;;;;;63.05;32.78;;;;;;;4.47;100.00;101000.91;5104911;28;20540;-72
2023/01/14 07:26:17;;;;;;;65.90;32.10;;;;;;;4.48;100.00;101006.13;5105374;28;20097;-68
2023/01/14 07:28:42;;;;;;;70.35;33.20;;;;;;;4.53;100.00;101008.56;5105372;28;20460;-70
2023/01/14 07:31:08;;;;;;;64.57;31.15;;;;;;;4.62;100.00;101016.88;5104717;28;20038;-70
2023/01/14 07:33:34;;;;;;;66.32;31.83;;;;;;;4.61;100.00;101001.91;5104053;28;20027;-70
2023/01/14 07:36:00;;;;;;;72.35;31.60;;;;;;;4.72;100.00;101022.59;5103473;28;20040;-71
2023/01/14 07:38:25;;;;;;;70.07;33.50;;;;;;;4.66;100.00;101026.44;5105435;28;20034;-71
2023/01/14 07:40:52;;;;;;;68.80;32.05;;;;;;;4.74;100.00;101029.53;5107207;28;20043;-70
2023/01/14 07:43:18;;;;;;;62.20;29.67;;;;;;;4.72;100.00;101030.56;5112689;27;20047;-70
2023/01/14 07:45:44;;;;;;;56.17;29.08;;;;;;;4.65;100.00;101029.16;5110185;27;20143;-70
2023/01/14 07:48:10;;;;;;;59.83;29.63;;;;;;;4.67;100.00;101038.78;5109283;28;20498;-70
2023/01/14 07:50:36;;;;;;;69.07;29.90;;;;;;;4.74;100.00;101040.16;5112552;27;20079;-71
2023/01/14 07:53:02;;;;;;;65.35;30.13;;;;;;;4.63;100.00;101033.69;5108581;28;20035;-71
2023/01/14 07:55:28;;;;;;;59.88;30.40;;;;;;;4.65;100.00;101039.78;5110772;27;20027;-71
2023/01/14 07:57:53;;;;;;;65.78;29.45;;;;;;;4.78;100.00;101044.38;5109164;28;20039;-71
2023/01/14 08:00:19;;;;;;;63.10;29.52;;;;;;;4.77;100.00;101046.25;5113015;27;20054;-72
2023/01/14 08:02:46;;;;;;;61.15;27.98;;;;;;;4.82;100.00;101049.53;5108628;28;20047;-70
2023/01/14 08:05:11;;;;;;;54.67;26.13;;;;;;;4.75;100.00;101049.84;5109831;28;20065;-70
2023/01/14 08:07:37;;;;;;;60.40;28.20;;;;;;;4.69;100.00;101051.97;5108719;28;20098;-71
2023/01/14 08:10:04;;;;;;;59.75;29.15;;;;;;;4.73;100.00;101045.56;5110585;28;20650;-71
2023/01/14 08:12:31;;;;;;;60.83;29.90;;;;;;;4.74;100.00;101028.66;5109891;28;20559;-71
2023/01/14 08:14:58;;;;;;;57.45;27.92;;;;;;;4.92;100.00;101051.63;5109756;28;20027;-70
2023/01/14 08:17:23;;;;;;;49.25;24.33;;;;;;;4.92;100.00;101042.78;5108510;28;20039;-70
2023/01/14 08:19:49;;;;;;;46.33;23.42;;;;;;;4.86;100.00;101048.44;5109584;28;20019;-70
2023/01/14 08:22:15;;;;;;;54.80;27.80;;;;;;;4.78;100.00;101051.50;5109157;27;20051;-70
2023/01/14 08:24:40;;;;;;;54.70;27.27;;;;;;;4.80;100.00;101054.91;5109584;28;20045;-70
2023/01/14 08:27:06;;;;;;;52.80;26.90;;;;;;;4.80;100.00;101044.28;5107465;28;20055;-71
2023/01/14 08:29:31;;;;;;;56.53;27.65;;;;;;;4.77;100.00;101035.63;5105230;28;20032;-70
2023/01/14 08:31:56;;;;;;;61.70;29.40;;;;;;;4.98;100.00;101047.78;5109419;28;20032;-71
2023/01/14 08:34:25;;;;;;;57.40;29.70;;;;;;;4.95;100.00;101032.84;5108826;28;20040;-71
2023/01/14 08:36:51;;;;;;;59.75;30.13;;;;;;;4.96;100.00;101039.03;5109871;28;20464;-71
2023/01/14 08:39:17;;;;;;;57.63;28.52;;;;;;;5.00;100.00;101048.56;5108547;28;20049;-71
2023/01/14 08:41:42;;;;;;;60.95;30.27;;;;;;;5.07;100.00;101040.19;5107962;28;20115;-71
2023/01/14 08:44:09;;;;;;;53.65;27.67;;;;;;;5.16;100.00;101066.25;5108587;28;20066;-72
2023/01/14 08:46:34;;;;;;;66.20;33.85;;;;;;;5.08;100.00;101057.84;5109385;28;20110;-71
2023/01/14 08:49:00;;;;;;;60.45;31.63;;;;;;;5.07;100.00;101063.25;5106255;28;20196;-71
2023/01/14 08:51:26;;;;;;;75.43;36.80;;;;;;;5.19;100.00;101084.69;5108396;28;20120;-71
2023/01/14 08:53:55;;;;;;;84.13;39.10;;;;;;;5.18;100.00;101075.00;5107325;27;20042;-70
2023/01/14 08:56:21;;;;;;;65.75;31.33;;;;;;;5.25;100.00;101076.41;5108272;28;20031;-72
2023/01/14 08:58:47;;;;;;;58.47;29.38;;;;;;;5.19;100.00;101074.06;5107587;27;20031;-71
2023/01/14 09:01:14;;;;;;;58.78;29.83;;;;;;;5.23;100.00;101077.44;5110943;27;20061;-71
2023/01/14 09:03:41;;;;;;;56.67;29.40;;;;;;;5.19;100.00;101079.38;5110001;27;20034;-71
2023/01/14 09:06:10;;;;;;;49.53;26.90;;;;;;;5.27;100.00;101090.47;5110734;27;20564;-72
2023/01/14 09:17:08;;;;;;;55.70;28.83;;;;;;;5.55;100.00;101093.34;5107855;28;20475;-71
2023/01/14 09:19:37;;;;;;;49.03;25.75;;;;;;;5.69;100.00;101093.47;5108008;27;20031;-70
2023/01/14 09:22:08;;;;;;;48.58;25.83;;;;;;;5.64;100.00;101098.16;5108368;28;20063;-70
2023/01/14 09:24:33;;;;;;;44.20;23.63;;;;;;;5.60;100.00;101096.63;5108200;28;20480;-71
2023/01/14 09:26:59;;;;;;;48.67;24.38;;;;;;;5.54;100.00;101096.94;5105375;28;20039;-71
2023/01/14 09:29:24;;;;;;;46.47;25.67;;;;;;;5.56;100.00;101088.88;5106725;28;20039;-71
2023/01/14 09:31:50;;;;;;;49.25;26.27;;;;;;;5.68;100.00;101094.38;5104440;27;20434;-70
2023/01/14 09:34:15;;;;;;;49.33;26.05;;;;;;;5.59;100.00;101094.03;5107709;28;20077;-71
2023/01/14 09:36:41;;;;;;;45.65;24.58;;;;;;;5.43;100.00;101093.16;5107242;28;20510;-72
2023/01/14 09:39:06;;;;;;;47.50;23.77;;;;;;;5.57;100.00;101085.28;5107406;28;20046;-72
2023/01/14 09:41:40;;;;;;;48.95;25.70;;;;;;;5.61;100.00;101084.19;5107345;28;20035;-72
2023/01/14 09:44:08;;;;;;;;;;;;;;;5.75;100.00;101085.13;5109392;28;20039;-71
2023/01/14 09:46:35;;;;;;;44.38;24.00;;;;;;;5.75;100.00;101078.94;5107421;28;19919;-71
2023/01/14 09:49:03;;;;;;;49.50;26.35;;;;;;;5.60;100.00;101077.13;5106885;28;20051;-70
2023/01/14 09:51:37;;;;;;;51.17;26.42;;;;;;;5.58;100.00;101082.53;5107077;28;20039;-71
2023/01/14 09:54:26;;;;;;;54.17;26.42;;;;;;;5.56;100.00;101076.44;5107435;28;20031;-71
2023/01/14 09:56:59;;;;;;;57.17;28.92;;;;;;;5.50;100.00;101071.47;5107563;28;20040;-71
2023/01/14 09:59:44;;;;;;;52.13;26.70;;;;;;;5.58;100.00;101076.38;5107917;28;20032;-70
2023/01/14 10:02:39;;;;;;;50.80;26.80;;;;;;;5.67;100.00;101073.22;5108578;28;20040;-70
2023/01/14 10:05:33;;;;;;;52.97;28.67;;;;;;;5.78;100.00;101060.16;5108473;28;20027;-71
2023/01/14 10:08:12;;;;;;;53.00;28.40;;;;;;;5.80;100.00;101060.94;5107855;27;20039;-71
2023/01/14 10:10:45;;;;;;;61.58;29.63;;;;;;;6.05;100.00;101054.13;5108592;27;20032;-71
2023/01/14 10:13:13;;;;;;;57.72;29.67;;;;;;;6.03;100.00;101068.50;5107941;27;20122;-71
2023/01/14 10:15:46;;;;;;;55.95;28.95;;;;;;;6.14;100.00;101066.06;5109963;27;20020;-71
2023/01/14 10:18:17;;;;;;;53.65;28.85;;;;;;;6.06;100.00;101065.66;5106305;28;20031;-71
2023/01/14 10:20:54;;;;;;;55.28;27.58;;;;;;;6.01;100.00;101067.72;5107940;28;20379;-71
2023/01/14 10:23:36;;;;;;;45.13;26.05;;;;;;;5.99;100.00;101064.28;5106698;27;20037;-71
2023/01/14 10:26:12;;;;;;;51.47;27.08;;;;;;;6.11;100.00;101042.28;5108173;28;20020;-71
2023/01/14 10:28:38;;;;;;;49.65;27.67;;;;;;;6.26;100.00;101058.22;5106322;28;20039;-71
2023/01/14 10:31:05;;;;;;;47.20;27.88;;;;;;;6.14;100.00;101058.94;5108020;27;20035;-72
2023/01/14 10:33:31;;;;;;;41.70;24.08;;;;;;;6.12;100.00;101054.63;5110424;27;20506;-71
2023/01/14 10:36:00;;;;;;;41.33;24.17;;;;;;;6.39;100.00;101058.38;5107971;27;20028;-72
2023/01/14 10:38:27;;;;;;;44.03;24.85;;;;;;;6.27;100.00;101061.75;5104266;28;20043;-72
2023/01/14 10:41:05;;;;;;;51.05;25.65;;;;;;;6.33;100.00;101064.91;5107600;27;20029;-71
2023/01/14 10:43:38;;;;;;;46.03;25.92;;;;;;;6.23;100.00;101044.22;5107689;28;20118;-72
2023/01/14 10:46:05;;;;;;;50.25;27.25;;;;;;;6.40;100.00;101052.94;5108647;27;20356;-71
2023/01/14 10:48:45;;;;;;;46.90;25.15;;;;;;;6.38;100.00;101053.97;5106369;28;20537;-72
2023/01/14 10:51:35;;;;;;;44.75;24.77;;;;;;;6.32;100.00;101057.84;5105549;28;20471;-72
2023/01/14 10:54:21;;;;;;;44.38;24.35;;;;;;;6.25;100.00;101043.19;5107671;28;20506;-69
2023/01/14 10:57:16;;;;;;;46.08;25.48;;;;;;;6.33;100.00;101042.75;5109937;27;20048;-70
2023/01/14 10:59:41;;;;;;;48.03;26.08;;;;;;;6.36;100.00;101042.56;5104720;27;20387;-70
2023/01/14 11:02:31;;;;;;;47.13;26.55;;;;;;;6.41;100.00;101040.47;5103037;27;20020;-70
2023/01/14 11:04:57;;;;;;;43.40;26.23;;;;;;;6.51;100.00;101036.31;5103097;28;20064;-71
2023/01/14 11:07:33;;;;;;;44.78;25.85;;;;;;;6.67;100.00;101037.97;5106688;28;20039;-71
2023/01/14 11:10:01;;;;;;;44.85;25.35;;;;;;;6.90;100.00;101034.75;5103729;28;20047;-70
2023/01/14 11:12:32;;;;;;;40.33;24.10;;;;;;;6.86;100.00;101030.56;5108111;28;20023;-70
2023/01/14 11:14:59;;;;;;;43.22;25.10;;;;;;;7.04;100.00;101025.91;5105514;28;20063;-71
2023/01/14 11:17:31;;;;;;;41.63;25.15;;;;;;;6.86;100.00;101014.56;5110769;28;20088;-70
2023/01/14 11:20:24;;;;;;;42.40;26.08;;;;;;;6.86;100.00;101024.38;5108861;27;20724;-69
2023/01/14 11:22:58;;;;;;;47.17;26.35;;;;;;;6.95;100.00;101037.16;5109287;28;20124;-70
2023/01/14 11:25:24;;;;;;;47.15;27.45;;;;;;;7.13;100.00;101036.03;5106130;28;20494;-70
2023/01/14 11:27:50;;;;;;;42.22;24.38;;;;;;;7.03;100.00;101037.50;5107092;28;20060;-70
2023/01/14 11:30:23;;;;;;;37.28;22.58;;;;;;;7.18;100.00;101030.38;5106979;27;20036;-71
2023/01/14 11:32:51;;;;;;;37.40;22.80;;;;;;;7.21;100.00;101025.72;5107581;28;20035;-70
2023/01/14 11:35:39;;;;;;;37.80;22.63;;;;;;;7.06;100.00;101021.31;5106934;28;20043;-69
2023/01/14 11:38:15;;;;;;;39.30;22.58;;;;;;;7.03;100.00;101018.84;5106107;28;20114;-71
2023/01/14 11:43:25;;;;;;;41.13;23.38;;;;;;;7.12;100.00;101020.13;5108096;28;20047;-70
2023/01/14 11:46:12;;;;;;;38.50;23.23;;;;;;;7.15;100.00;101010.09;5107988;28;20035;-72